Time;durP1;ratioP1;P1;durP2;ratioP2;P2;SDS_P1;SDS_P2;PMS_P1;PMS_P2;Temp;Humidity;BMP_temperature;BMP_pressure;BME280_temperature;BME280_humidity;BME280_pressure;Samples;Min_cycle;Max_cycle;Signal;HPM_P1;HPM_P2
2022/06/30 00:01:45;;;;;;;4.28;3.25;;;;;;;18.91;57.90;100786.36;1575369;88;33635;-77
2022/06/30 00:04:15;;;;;;;6.03;3.37;;;;;;;18.93;58.00;100789.29;1585399;89;21169;-77
2022/06/30 00:06:41;;;;;;;3.33;3.02;;;;;;;18.98;58.06;100785.14;1604910;89;21086;-77
2022/06/30 00:09:08;;;;;;;3.42;3.15;;;;;;;19.01;58.11;100777.13;1591990;89;21087;-77
2022/06/30 00:11:34;;;;;;;3.70;2.98;;;;;;;19.04;58.16;100773.91;1593417;89;21030;-77
2022/06/30 00:14:00;;;;;;;4.33;3.92;;;;;;;19.08;58.23;100771.52;1610134;87;21061;-77
2022/06/30 00:16:30;;;;;;;3.72;3.12;;;;;;;19.13;58.29;100778.70;1623251;87;21093;-77
2022/06/30 00:18:57;;;;;;;5.67;3.20;;;;;;;19.17;58.34;100782.87;1629989;87;22416;-77
2022/06/30 00:21:23;;;;;;;7.55;2.87;;;;;;;19.21;58.41;100797.14;1609855;87;21093;-77
2022/06/30 00:23:56;;;;;;;4.15;3.15;;;;;;;19.20;58.47;100802.84;1608004;88;21347;-77
2022/06/30 00:26:22;;;;;;;4.72;3.87;;;;;;;19.22;58.54;100806.24;1608569;87;21145;-77
2022/06/30 00:28:48;;;;;;;4.33;3.92;;;;;;;19.23;58.61;100806.63;1627960;87;21133;-77
2022/06/30 00:31:15;;;;;;;5.33;3.20;;;;;;;19.28;58.66;100810.30;1619083;87;21100;-77
2022/06/30 00:33:41;;;;;;;4.60;3.30;;;;;;;19.31;58.72;100803.14;1627050;87;21611;-78
2022/06/30 00:36:07;;;;;;;4.50;3.52;;;;;;;19.33;58.76;100805.69;1634607;87;21356;-78
2022/06/30 00:38:33;;;;;;;5.20;3.00;;;;;;;19.35;58.79;100802.06;1628106;87;21694;-78
2022/06/30 00:41:00;;;;;;;3.02;2.72;;;;;;;19.38;58.84;100816.80;1622808;87;21449;-78
2022/06/30 00:43:27;;;;;;;4.35;2.70;;;;;;;19.38;58.91;100828.14;1622483;87;21921;-78
2022/06/30 00:45:53;;;;;;;5.12;3.50;;;;;;;19.40;58.97;100842.03;1610687;87;20960;-78
2022/06/30 00:48:20;;;;;;;6.53;3.47;;;;;;;19.41;59.03;100852.05;1610487;88;21049;-77
2022/06/30 00:50:46;;;;;;;3.47;3.17;;;;;;;19.39;59.12;100857.84;1610830;88;26212;-77
2022/06/30 00:53:12;;;;;;;4.97;3.30;;;;;;;19.39;59.17;100856.06;1599930;87;20943;-77
2022/06/30 00:55:39;;;;;;;6.12;3.85;;;;;;;19.39;59.18;100860.45;1623773;86;20889;-77
2022/06/30 00:58:09;;;;;;;6.17;3.50;;;;;;;19.37;59.29;100867.55;1656987;84;20955;-77
2022/06/30 01:00:39;;;;;;;8.15;3.47;;;;;;;19.36;59.35;100878.50;1622684;86;20986;-77
2022/06/30 01:03:08;;;;;;;4.30;3.37;;;;;;;19.38;59.39;100873.19;1627887;87;20938;-77
2022/06/30 01:05:37;;;;;;;3.33;3.02;;;;;;;19.40;59.46;100875.27;1635949;87;20966;-77
2022/06/30 01:08:05;;;;;;;5.12;3.35;;;;;;;19.41;59.56;100876.97;1630056;87;20917;-77
2022/06/30 01:13:17;;;;;;;4.53;2.90;;;;;;;19.36;59.65;100882.89;1608692;87;21335;-77
2022/06/30 01:15:43;;;;;;;;;;;;;;;19.37;59.76;100889.84;1600105;89;21357;-77
2022/06/30 01:18:10;;;;;;;3.77;3.42;;;;;;;19.38;60.17;100884.52;1604451;89;20707;-77
2022/06/30 01:20:36;;;;;;;3.27;3.00;;;;;;;19.41;59.84;100886.15;1597221;87;21162;-77
2022/06/30 01:23:05;;;;;;;3.80;3.35;;;;;;;19.41;59.91;100888.77;1579249;90;21333;-77
2022/06/30 01:25:34;;;;;;;4.15;3.40;;;;;;;19.43;59.96;100889.55;1579676;90;21015;-77
2022/06/30 01:28:00;;;;;;;3.67;3.35;;;;;;;19.46;60.03;100890.70;1584780;89;21098;-77
2022/06/30 01:30:27;;;;;;;5.25;3.22;;;;;;;19.46;60.11;100889.40;1579534;90;21090;-77
2022/06/30 01:32:54;;;;;;;5.60;3.15;;;;;;;19.48;60.15;100897.58;1583114;87;21102;-77
2022/06/30 01:35:20;;;;;;;4.97;3.17;;;;;;;19.49;60.21;100886.16;1580230;88;21356;-77
2022/06/30 01:37:58;;;;;;;7.78;3.52;;;;;;;19.49;60.31;100915.02;1588814;86;615590;-77
2022/06/30 01:40:29;;;;;;;6.40;3.12;;;;;;;19.45;60.42;100918.71;1641471;85;21010;-77
2022/06/30 01:42:56;;;;;;;5.10;3.77;;;;;;;19.49;60.55;100917.64;1641056;85;21339;-77
2022/06/30 01:45:23;;;;;;;4.58;4.17;;;;;;;19.46;60.68;100940.08;1629354;87;26924;-77
2022/06/30 01:47:51;;;;;;;5.55;4.08;;;;;;;19.44;60.80;100912.23;1636489;86;22131;-77
2022/06/30 01:50:21;;;;;;;7.47;4.42;;;;;;;19.39;60.95;100928.18;1618145;87;21355;-77
2022/06/30 01:52:48;;;;;;;5.42;4.37;;;;;;;19.38;61.09;100913.37;1626539;85;21410;-77
2022/06/30 01:55:15;;;;;;;9.30;5.20;;;;;;;19.37;61.31;100917.38;1626222;85;21014;-77
2022/06/30 01:57:42;;;;;;;6.75;5.00;;;;;;;19.39;61.44;100895.86;1677980;84;20913;-78
2022/06/30 02:00:13;;;;;;;10.45;6.17;;;;;;;19.38;61.54;100883.67;1637322;84;20996;-78
2022/06/30 02:02:41;;;;;;;11.73;6.78;;;;;;;19.38;61.64;100877.97;1621604;87;22234;-78
2022/06/30 02:05:08;;;;;;;10.78;6.37;;;;;;;19.38;61.77;100857.45;1623851;85;20961;-78
2022/06/30 02:07:36;;;;;;;7.97;5.50;;;;;;;19.27;62.02;100842.23;1616184;87;20925;-78
2022/06/30 02:10:08;;;;;;;7.90;5.45;;;;;;;19.20;62.21;100836.08;1623724;87;20973;-78
2022/06/30 02:12:47;;;;;;;8.15;5.90;;;;;;;19.09;62.41;100838.75;1633839;87;20954;-78
2022/06/30 02:15:20;;;;;;;13.20;6.55;;;;;;;18.99;62.65;100832.70;1628036;86;20961;-78
2022/06/30 02:17:50;;;;;;;10.25;7.62;;;;;;;18.91;62.86;100826.97;1623635;87;20942;-78
2022/06/30 02:20:23;;;;;;;19.23;7.67;;;;;;;18.84;63.04;100815.92;1617431;87;20969;-79
2022/06/30 02:22:54;;;;;;;12.82;8.00;;;;;;;18.79;63.27;100812.21;1676148;84;20959;-79
2022/06/30 02:25:20;;;;;;;10.43;8.10;;;;;;;18.77;63.48;100797.02;1624051;86;20893;-79
2022/06/30 02:27:47;;;;;;;9.08;7.70;;;;;;;18.76;63.59;100784.00;1616394;88;20938;-79
2022/06/30 02:30:14;;;;;;;17.95;8.78;;;;;;;18.75;63.77;100766.58;1626054;85;26071;-80
2022/06/30 02:32:40;;;;;;;11.38;8.68;;;;;;;18.68;63.81;100743.78;1616692;87;21315;-80
2022/06/30 02:35:08;;;;;;;16.10;8.60;;;;;;;18.64;64.04;100718.66;1645827;86;20929;-80
2022/06/30 02:37:34;;;;;;;12.60;9.18;;;;;;;18.63;64.20;100692.54;1624024;87;20929;-80
2022/06/30 02:40:01;;;;;;;10.98;8.98;;;;;;;18.60;64.34;100684.37;1640794;86;20953;-81
2022/06/30 02:42:27;;;;;;;11.90;9.53;;;;;;;18.60;64.51;100683.48;1643271;86;21457;-81
2022/06/30 02:44:54;;;;;;;;;;;;;;;18.61;64.64;100686.53;1650625;86;21060;-80
2022/06/30 02:47:20;;;;;;;15.20;10.03;;;;;;;18.62;65.70;100684.30;1640825;86;20704;-80
2022/06/30 02:49:47;;;;;;;10.70;9.75;;;;;;;18.66;64.87;100702.88;1640861;86;21080;-80
2022/06/30 02:52:13;;;;;;;11.43;10.25;;;;;;;18.67;64.92;100721.59;1631039;85;21075;-80
2022/06/30 02:54:39;;;;;;;11.85;10.48;;;;;;;18.62;65.04;100727.05;1623581;87;21584;-80
2022/06/30 02:57:06;;;;;;;13.08;11.05;;;;;;;18.61;65.41;100753.31;1621145;86;21100;-80
2022/06/30 02:59:32;;;;;;;12.55;11.30;;;;;;;18.57;65.60;100772.67;1620134;87;21051;-80
2022/06/30 03:01:59;;;;;;;17.62;12.30;;;;;;;18.57;65.53;100792.31;1629690;84;588994;-80
2022/06/30 03:04:25;;;;;;;13.60;12.15;;;;;;;18.56;65.91;100811.11;1589144;89;21505;-80
2022/06/30 03:06:51;;;;;;;16.32;10.82;;;;;;;18.54;66.00;100816.87;1578859;90;21193;-80
2022/06/30 03:09:18;;;;;;;23.30;12.88;;;;;;;18.55;65.91;100815.11;1578929;89;21100;-80
2022/06/30 03:11:44;;;;;;;14.15;12.78;;;;;;;18.55;66.33;100826.89;1593230;89;21176;-80
2022/06/30 03:14:11;;;;;;;16.05;12.13;;;;;;;18.57;66.21;100830.30;1596987;88;21188;-80
2022/06/30 03:16:37;;;;;;;15.30;13.05;;;;;;;18.58;66.30;100842.02;1611122;88;21137;-81
2022/06/30 03:19:06;;;;;;;15.00;13.50;;;;;;;18.61;66.42;100855.46;1613179;88;21124;-81
2022/06/30 03:21:32;;;;;;;15.65;13.32;;;;;;;18.67;66.50;100876.98;1613599;88;21160;-81
2022/06/30 03:23:59;;;;;;;16.93;13.78;;;;;;;18.73;66.62;100890.23;1602339;88;21088;-81
2022/06/30 03:26:25;;;;;;;15.23;12.93;;;;;;;18.78;66.70;100881.71;1590174;88;21539;-81
2022/06/30 03:28:52;;;;;;;14.90;13.30;;;;;;;18.80;66.75;100860.22;1588140;90;21104;-81
2022/06/30 03:31:19;;;;;;;;;;;;;;;18.84;66.82;100846.06;1592265;88;21061;-81
2022/06/30 03:33:45;;;;;;;13.98;12.73;;;;;;;18.86;67.92;100831.12;1599243;88;20203;-82
2022/06/30 03:36:12;;;;;;;14.60;13.00;;;;;;;18.89;67.05;100812.63;1587890;90;21149;-82
2022/06/30 03:38:38;;;;;;;14.53;13.05;;;;;;;18.93;67.14;100787.13;1595813;88;21077;-81
2022/06/30 03:41:04;;;;;;;16.07;14.50;;;;;;;18.96;67.24;100776.50;1607063;88;21064;-81
2022/06/30 03:43:31;;;;;;;15.78;14.43;;;;;;;19.00;67.31;100764.48;1613309;88;21129;-81
2022/06/30 03:45:57;;;;;;;15.23;13.88;;;;;;;18.99;67.37;100752.77;1608903;88;21010;-82
2022/06/30 03:48:24;;;;;;;17.17;15.43;;;;;;;18.96;67.61;100738.50;1598731;88;25002;-82
2022/06/30 03:50:50;;;;;;;16.25;14.85;;;;;;;18.95;67.75;100721.93;1587756;90;21077;-82
2022/06/30 03:53:17;;;;;;;18.98;15.98;;;;;;;18.95;67.92;100704.05;1588847;88;21147;-82
2022/06/30 03:55:43;;;;;;;17.85;16.20;;;;;;;18.95;68.10;100678.69;1612479;88;21075;-82
2022/06/30 03:58:10;;;;;;;17.45;15.80;;;;;;;18.95;68.29;100661.66;1612120;87;21110;-82
2022/06/30 04:00:36;;;;;;;16.70;15.20;;;;;;;18.94;68.39;100631.14;1598590;87;21130;-82
2022/06/30 04:03:09;;;;;;;17.80;15.58;;;;;;;18.95;68.51;100602.70;1610082;88;21030;-82
2022/06/30 04:05:35;;;;;;;17.35;15.95;;;;;;;18.94;68.59;100597.07;1607523;87;21562;-82
2022/06/30 04:08:02;;;;;;;16.77;15.25;;;;;;;18.96;68.71;100586.52;1607102;88;25358;-82
2022/06/30 04:10:29;;;;;;;16.30;14.70;;;;;;;18.97;68.85;100589.05;1611997;88;21150;-82
2022/06/30 04:12:56;;;;;;;16.82;15.32;;;;;;;19.00;68.89;100589.36;1604711;88;21690;-82
2022/06/30 04:15:22;;;;;;;15.78;14.30;;;;;;;19.01;68.98;100587.97;1589051;88;21077;-82
2022/06/30 04:17:49;;;;;;;14.85;13.45;;;;;;;19.05;69.12;100606.55;1594778;88;21131;-82
2022/06/30 04:20:18;;;;;;;16.30;14.73;;;;;;;19.08;69.30;100630.45;1590741;88;21063;-82
2022/06/30 04:22:50;;;;;;;15.10;13.70;;;;;;;19.08;69.24;100633.91;1572997;90;21142;-82
2022/06/30 04:25:17;;;;;;;15.13;13.83;;;;;;;19.09;69.35;100635.61;1596361;89;20954;-82
2022/06/30 04:27:50;;;;;;;17.42;15.63;;;;;;;19.08;69.42;100612.94;1605767;89;20926;-82
2022/06/30 04:33:04;;;;;;;14.35;13.03;;;;;;;19.10;69.81;100550.80;1580964;89;20990;-82
2022/06/30 04:35:30;;;;;;;15.15;13.15;;;;;;;19.11;69.66;100551.66;1582644;89;20970;-82
2022/06/30 04:38:01;;;;;;;15.32;13.88;;;;;;;19.11;69.75;100576.09;1580327;89;21589;-82
2022/06/30 04:43:12;;;;;;;15.38;13.90;;;;;;;19.13;69.95;100626.66;1604860;88;21616;-82
2022/06/30 04:45:38;;;;;;;16.30;14.90;;;;;;;19.16;70.00;100617.80;1597945;89;21008;-82
2022/06/30 04:48:05;;;;;;;17.37;15.10;;;;;;;19.17;70.08;100604.61;1576898;90;21156;-82
2022/06/30 04:50:32;;;;;;;16.40;15.00;;;;;;;19.21;70.17;100607.08;1600977;87;21084;-82
2022/06/30 04:53:01;;;;;;;21.33;15.78;;;;;;;19.22;70.16;100600.91;1554334;90;21521;-82
2022/06/30 04:55:27;;;;;;;16.85;15.35;;;;;;;19.24;70.24;100605.57;1604117;88;21125;-82
2022/06/30 04:57:53;;;;;;;16.50;14.45;;;;;;;19.25;70.35;100616.44;1578200;90;21553;-82
2022/06/30 05:00:23;;;;;;;16.93;15.53;;;;;;;19.26;70.48;100618.98;1604242;89;21545;-82
2022/06/30 05:02:50;;;;;;;15.70;14.23;;;;;;;19.30;70.56;100625.77;1604503;89;20997;-82
2022/06/30 05:05:16;;;;;;;16.65;15.03;;;;;;;19.32;70.94;100633.09;1604157;89;21187;-82
2022/06/30 05:07:43;;;;;;;16.27;14.87;;;;;;;19.33;70.69;100633.47;1601983;87;28847;-82
2022/06/30 05:10:09;;;;;;;14.90;13.62;;;;;;;19.37;70.75;100649.89;1589193;88;21041;-82
2022/06/30 05:12:36;;;;;;;16.37;14.87;;;;;;;19.39;70.78;100663.31;1615905;87;22205;-82
2022/06/30 05:15:04;;;;;;;15.18;13.72;;;;;;;19.43;70.85;100676.66;1613807;88;21653;-82
2022/06/30 05:17:30;;;;;;;;;;;;;;;19.48;70.90;100678.58;1613824;88;21531;-82
2022/06/30 05:19:56;;;;;;;15.50;14.18;;;;;;;19.55;71.76;100674.36;1598740;88;20190;-82
2022/06/30 05:22:22;;;;;;;15.95;13.70;;;;;;;19.61;71.01;100672.26;1609959;88;21594;-82
2022/06/30 05:27:36;;;;;;;16.00;14.40;;;;;;;19.73;71.05;100672.08;1589130;88;21614;-82
2022/06/30 05:30:04;;;;;;;17.12;15.13;;;;;;;19.75;71.07;100663.20;1602073;88;21349;-82
2022/06/30 05:32:30;;;;;;;;;;;;;;;19.78;71.63;100667.41;1570203;89;21550;-82
2022/06/30 05:34:57;;;;;;;17.35;15.78;;;;;;;19.78;72.08;100670.03;1601155;88;20435;-82
2022/06/30 05:37:23;;;;;;;17.80;16.23;;;;;;;19.78;71.31;100668.25;1606523;88;22303;-82
2022/06/30 05:39:51;;;;;;;16.40;14.85;;;;;;;19.84;71.35;100680.20;1577911;89;21024;-82
2022/06/30 05:42:17;;;;;;;16.45;15.15;;;;;;;19.90;71.38;100677.25;1563847;89;21536;-82
2022/06/30 05:44:43;;;;;;;14.95;13.58;;;;;;;19.96;71.48;100676.08;1579354;89;21172;-82
2022/06/30 05:47:10;;;;;;;15.50;13.68;;;;;;;20.05;71.49;100682.14;1578681;90;22587;-82
2022/06/30 05:49:39;;;;;;;15.40;13.85;;;;;;;20.13;71.53;100687.83;1578762;89;21606;-82
2022/06/30 05:52:06;;;;;;;16.12;14.33;;;;;;;20.23;71.58;100685.55;1602305;89;21100;-82
2022/06/30 05:54:32;;;;;;;;;;;;;;;20.36;71.65;100693.95;1578189;90;21581;-82
2022/06/30 05:56:59;;;;;;;14.25;13.03;;;;;;;20.52;72.21;100707.13;1625269;87;20196;-82
2022/06/30 05:59:26;;;;;;;14.65;13.35;;;;;;;20.79;71.86;100703.41;1589749;89;23026;-83
2022/06/30 06:01:52;;;;;;;16.73;13.08;;;;;;;21.25;72.04;100700.29;1592346;87;21569;-83
2022/06/30 06:04:18;;;;;;;13.15;12.05;;;;;;;21.84;71.90;100706.33;1596060;88;21475;-83
2022/06/30 06:06:45;;;;;;;14.98;10.45;;;;;;;22.45;71.75;100711.25;1603493;89;21561;-83
2022/06/30 06:09:11;;;;;;;11.08;9.98;;;;;;;23.13;71.49;100709.03;1598193;87;21165;-83
2022/06/30 06:11:38;;;;;;;12.43;10.13;;;;;;;23.83;71.17;100704.23;1603982;87;21513;-83
2022/06/30 06:14:05;;;;;;;9.20;8.35;;;;;;;24.45;70.77;100708.15;1607385;87;21585;-83
2022/06/30 06:16:31;;;;;;;8.23;7.53;;;;;;;24.93;70.39;100710.33;1607308;87;21470;-83
2022/06/30 06:18:58;;;;;;;9.48;7.47;;;;;;;25.28;70.26;100701.55;1616047;87;21097;-83
2022/06/30 06:21:26;;;;;;;8.43;7.72;;;;;;;25.85;70.39;100704.65;1603553;87;21629;-83
2022/06/30 06:23:53;;;;;;;7.28;6.67;;;;;;;26.37;69.84;100703.53;1605490;87;21132;-83
2022/06/30 06:26:19;;;;;;;11.48;6.95;;;;;;;26.74;69.60;100705.81;1608245;87;21692;-83
2022/06/30 06:31:40;;;;;;;7.47;6.85;;;;;;;27.46;69.07;100694.48;1610691;87;21480;-83
2022/06/30 06:34:07;;;;;;;8.30;6.35;;;;;;;27.77;68.47;100701.99;1611903;86;21401;-83
2022/06/30 06:36:34;;;;;;;7.33;6.67;;;;;;;27.86;68.40;100699.87;1612088;87;20983;-83
2022/06/30 06:39:01;;;;;;;9.33;7.30;;;;;;;27.90;68.30;100702.61;1607184;87;21376;-83
2022/06/30 06:41:27;;;;;;;;;;;;;;;27.89;68.00;100704.43;1612957;87;21409;-82
2022/06/30 06:43:54;;;;;;;7.85;6.47;;;;;;;27.69;67.20;100714.13;1610088;87;20108;-82
2022/06/30 06:46:29;;;;;;;7.42;6.33;;;;;;;27.79;68.19;100709.34;1610442;87;20971;-82
2022/06/30 06:49:02;;;;;;;10.25;6.70;;;;;;;28.03;67.65;100717.00;1608352;87;20943;-82
2022/06/30 06:51:29;;;;;;;7.20;6.62;;;;;;;28.11;67.53;100721.13;1608250;87;20908;-82
2022/06/30 06:53:56;;;;;;;;;;;;;;;27.99;67.16;100721.75;1611944;88;21381;-82
2022/06/30 06:56:23;;;;;;;7.53;6.92;;;;;;;27.69;65.95;100723.42;1603239;88;20108;-82
2022/06/30 06:58:52;;;;;;;8.15;6.15;;;;;;;27.36;66.47;100733.77;1617435;86;20928;-82
2022/06/30 07:01:19;;;;;;;6.83;6.08;;;;;;;26.85;65.82;100719.05;1609950;87;20918;-82
2022/06/30 07:03:46;;;;;;;8.23;6.15;;;;;;;26.49;66.81;100725.56;1610070;86;20975;-82
2022/06/30 07:06:12;;;;;;;;;;;;;;;26.54;66.91;100728.66;1602693;89;21535;-81
2022/06/30 07:08:38;;;;;;;6.87;6.15;;;;;;;26.32;66.11;100725.59;1604066;87;20459;-82
2022/06/30 07:11:05;;;;;;;7.58;6.40;;;;;;;26.28;66.86;100724.60;1604007;87;21087;-81
2022/06/30 07:13:35;;;;;;;7.05;6.53;;;;;;;26.41;66.60;100729.31;1604030;89;21539;-81
2022/06/30 07:16:02;;;;;;;9.35;6.45;;;;;;;26.42;66.41;100727.02;1611461;87;21599;-81
2022/06/30 07:18:30;;;;;;;7.28;6.30;;;;;;;26.52;66.21;100734.57;1618275;88;21477;-81
2022/06/30 07:20:57;;;;;;;7.30;6.40;;;;;;;26.34;65.69;100741.38;1618809;87;21473;-81
2022/06/30 07:23:23;;;;;;;7.65;6.30;;;;;;;25.96;65.84;100745.24;1615859;86;21545;-81
2022/06/30 07:25:49;;;;;;;7.55;6.85;;;;;;;25.73;65.80;100745.70;1623313;86;21098;-81
2022/06/30 07:28:28;;;;;;;8.93;6.70;;;;;;;25.77;66.08;100744.98;1615670;86;21135;-81
2022/06/30 07:30:55;;;;;;;7.05;6.45;;;;;;;25.89;65.78;100743.19;1615856;86;21106;-81
2022/06/30 07:33:21;;;;;;;7.83;7.15;;;;;;;26.18;65.97;100739.55;1618849;86;21569;-81
2022/06/30 07:35:47;;;;;;;7.40;6.62;;;;;;;26.52;65.48;100751.81;1628200;86;21149;-81
2022/06/30 07:38:14;;;;;;;10.93;7.05;;;;;;;26.49;65.15;100756.55;1616471;88;21135;-81
2022/06/30 07:40:40;;;;;;;8.48;7.53;;;;;;;26.43;65.06;100746.43;1619305;86;21163;-81
2022/06/30 07:43:07;;;;;;;8.38;7.45;;;;;;;26.37;65.12;100747.77;1619708;87;21073;-81
2022/06/30 07:45:33;;;;;;;9.15;8.28;;;;;;;26.38;64.95;100745.47;1619941;87;21131;-80
2022/06/30 07:48:00;;;;;;;8.23;7.25;;;;;;;26.24;64.63;100733.77;1617488;87;21468;-80
2022/06/30 07:50:26;;;;;;;7.83;7.15;;;;;;;26.07;64.72;100747.02;1617918;87;21685;-80
2022/06/30 07:52:52;;;;;;;7.37;6.55;;;;;;;25.96;64.78;100754.52;1613262;87;21558;-80
2022/06/30 07:55:19;;;;;;;9.40;7.05;;;;;;;25.86;64.67;100753.55;1622678;86;21162;-79
2022/06/30 07:57:48;;;;;;;7.25;6.53;;;;;;;25.73;64.64;100753.65;1625958;86;21075;-80
2022/06/30 08:00:16;;;;;;;8.93;7.03;;;;;;;25.61;64.73;100758.53;1618016;87;21173;-81
2022/06/30 08:02:43;;;;;;;8.70;7.90;;;;;;;25.53;64.70;100753.45;1614972;87;21159;-81
2022/06/30 08:05:11;;;;;;;8.33;7.37;;;;;;;25.50;64.64;100766.92;1612401;87;21051;-81
2022/06/30 08:07:41;;;;;;;7.92;7.22;;;;;;;25.35;64.59;100771.61;1618375;86;21118;-80
2022/06/30 08:10:08;;;;;;;8.60;7.70;;;;;;;25.28;64.81;100773.87;1618701;88;21098;-81
2022/06/30 08:12:35;;;;;;;14.68;8.23;;;;;;;25.19;64.57;100777.67;1610547;86;21154;-82
2022/06/30 08:15:02;;;;;;;12.88;9.60;;;;;;;25.14;64.58;100774.05;1620742;86;21095;-78
2022/06/30 08:17:32;;;;;;;;;;;;;;;25.13;64.59;100764.89;1623919;86;21135;-80
2022/06/30 08:20:00;;;;;;;8.68;7.83;;;;;;;25.20;64.43;100763.48;1618521;87;20315;-81
2022/06/30 08:22:26;;;;;;;8.33;7.45;;;;;;;25.20;64.43;100763.48;1616299;86;20975;-81
2022/06/30 08:24:53;;;;;;;11.40;8.45;;;;;;;25.28;64.53;100761.95;1618649;86;21070;-81
2022/06/30 08:27:19;;;;;;;9.15;8.43;;;;;;;25.36;64.46;100768.00;1623365;86;20946;-81
2022/06/30 08:29:45;;;;;;;9.33;8.00;;;;;;;25.53;64.49;100761.39;1619981;87;20912;-80
2022/06/30 08:32:12;;;;;;;12.45;7.85;;;;;;;25.59;64.38;100760.45;1620281;87;21468;-81
2022/06/30 08:34:38;;;;;;;;;;;;;;;25.79;64.56;100758.95;1650132;84;174777;-81
2022/06/30 08:37:05;;;;;;;8.73;7.60;;;;;;;26.12;64.36;100755.45;1678105;84;20193;-81
2022/06/30 08:42:20;;;;;;;8.85;6.53;;;;;;;26.26;64.17;100755.70;1674829;84;21106;-80
2022/06/30 08:47:32;;;;;;;8.38;6.65;;;;;;;26.23;64.13;100751.48;1674008;84;21041;-80
2022/06/30 08:49:59;;;;;;;9.38;6.37;;;;;;;26.19;64.11;100752.69;1675445;84;21052;-80
2022/06/30 08:52:29;;;;;;;6.20;5.60;;;;;;;26.17;64.05;100758.59;1678206;84;21072;-79
2022/06/30 08:55:00;;;;;;;6.50;5.87;;;;;;;26.14;64.08;100746.91;1673237;84;21104;-79
2022/06/30 08:57:29;;;;;;;7.42;6.33;;;;;;;26.24;64.17;100754.97;1677380;84;20921;-79
2022/06/30 08:59:56;;;;;;;9.00;5.53;;;;;;;26.31;64.06;100750.91;1676744;84;21003;-79
2022/06/30 09:02:22;;;;;;;6.45;5.03;;;;;;;26.45;64.10;100747.16;1677850;84;20986;-79
2022/06/30 09:04:49;;;;;;;13.05;5.62;;;;;;;26.62;64.00;100739.97;1677621;84;20902;-79
2022/06/30 09:07:15;;;;;;;6.10;4.65;;;;;;;26.75;63.86;100737.17;1682832;84;20954;-81
2022/06/30 09:09:41;;;;;;;6.50;4.83;;;;;;;26.87;63.76;100735.69;1672735;84;21339;-80
2022/06/30 09:12:15;;;;;;;6.92;4.85;;;;;;;27.01;63.65;100737.23;1672725;84;20958;-80
2022/06/30 09:14:46;;;;;;;7.53;4.60;;;;;;;27.06;63.28;100740.31;1666165;84;20941;-80
2022/06/30 09:17:17;;;;;;;5.92;4.53;;;;;;;26.90;63.22;100728.80;1685991;84;20973;-80
2022/06/30 09:20:08;;;;;;;7.55;5.03;;;;;;;26.99;63.51;100738.69;1687921;83;21467;-80
2022/06/30 09:22:42;;;;;;;5.35;4.58;;;;;;;26.97;63.17;100730.49;1692840;83;21331;-80
2022/06/30 09:25:15;;;;;;;5.33;4.92;;;;;;;26.90;63.23;100723.48;1689213;83;21395;-80
2022/06/30 09:27:44;;;;;;;5.40;4.90;;;;;;;26.99;63.15;100722.77;1654412;85;20921;-80
2022/06/30 09:30:14;;;;;;;5.45;5.05;;;;;;;27.08;63.09;100721.61;1693489;84;21000;-80
2022/06/30 09:32:56;;;;;;;5.87;4.62;;;;;;;27.12;62.94;100720.38;1660310;85;20902;-80
2022/06/30 09:35:26;;;;;;;6.30;4.50;;;;;;;27.13;62.80;100722.06;1693798;83;20948;-80
2022/06/30 09:38:09;;;;;;;5.83;5.10;;;;;;;27.06;62.76;100717.75;1652970;85;20944;-80
2022/06/30 09:43:34;;;;;;;5.08;4.67;;;;;;;27.07;62.68;100714.61;1651578;85;20992;-80
2022/06/30 09:46:01;;;;;;;5.47;4.75;;;;;;;27.12;62.66;100719.05;1652444;85;21097;-80
2022/06/30 09:48:28;;;;;;;;;;;;;;;27.19;62.57;100714.92;1693670;84;21084;-80
2022/06/30 09:51:03;;;;;;;4.80;4.20;;;;;;;27.24;62.26;100710.91;1692837;84;20198;-80
2022/06/30 09:53:31;;;;;;;5.40;4.90;;;;;;;27.22;62.39;100707.54;1689524;84;21115;-80
2022/06/30 09:56:13;;;;;;;5.40;4.80;;;;;;;27.23;62.25;100702.58;1692028;84;21055;-80
2022/06/30 09:58:43;;;;;;;7.90;4.85;;;;;;;27.19;62.18;100710.94;1686026;84;21064;-80
2022/06/30 10:01:10;;;;;;;8.23;4.80;;;;;;;27.14;62.19;100711.80;1690373;83;21044;-80
2022/06/30 10:03:48;;;;;;;5.47;5.03;;;;;;;27.07;62.07;100704.84;1682956;84;21075;-80
2022/06/30 10:06:17;;;;;;;5.47;4.72;;;;;;;27.09;62.06;100709.53;1688115;83;21492;-80
2022/06/30 10:08:44;;;;;;;5.42;5.05;;;;;;;27.16;62.01;100709.38;1690531;83;21123;-80
2022/06/30 10:11:12;;;;;;;10.35;6.15;;;;;;;27.19;61.81;100708.28;1691148;83;21031;-80
2022/06/30 10:13:47;;;;;;;5.80;5.30;;;;;;;27.22;61.82;100700.05;1656203;85;21155;-80
2022/06/30 10:16:13;;;;;;;6.05;5.55;;;;;;;27.24;61.70;100704.75;1691853;84;21067;-80
2022/06/30 10:18:40;;;;;;;5.35;4.85;;;;;;;27.22;61.57;100696.91;1688870;83;21119;-80
2022/06/30 10:21:12;;;;;;;6.00;5.37;;;;;;;27.22;61.59;100692.09;1685807;84;21071;-80
2022/06/30 10:23:39;;;;;;;6.40;5.62;;;;;;;27.31;61.48;100695.30;1665290;84;22275;-80
2022/06/30 10:26:06;;;;;;;5.90;5.17;;;;;;;27.35;61.39;100686.94;1692434;83;21111;-80
2022/06/30 10:28:39;;;;;;;7.60;6.08;;;;;;;27.46;61.32;100695.81;1680459;84;21083;-80
2022/06/30 10:31:20;;;;;;;7.00;6.30;;;;;;;27.49;61.11;100697.72;1693279;84;21793;-80
2022/06/30 10:34:04;;;;;;;6.33;5.62;;;;;;;27.55;61.14;100699.86;1652921;86;21076;-80
2022/06/30 10:36:45;;;;;;;5.90;5.40;;;;;;;27.63;61.04;100707.17;1693021;84;20976;-79
2022/06/30 10:39:45;;;;;;;6.15;5.70;;;;;;;27.69;60.95;100710.63;1692472;83;20917;-79
2022/06/30 10:42:41;;;;;;;6.53;6.00;;;;;;;27.75;60.93;100710.09;1574096;88;21014;-79
2022/06/30 10:45:30;;;;;;;6.62;6.12;;;;;;;27.81;60.68;100710.05;1620577;86;20925;-79
2022/06/30 10:48:06;;;;;;;5.92;5.42;;;;;;;27.75;60.56;100699.95;1683879;84;20945;-79
2022/06/30 10:50:42;;;;;;;6.65;5.90;;;;;;;27.67;60.35;100692.64;1687949;84;21101;-79
2022/06/30 10:53:16;;;;;;;8.18;5.92;;;;;;;27.62;60.42;100692.20;1689682;83;20888;-79
2022/06/30 10:55:52;;;;;;;6.15;5.22;;;;;;;27.63;60.29;100686.75;1692438;84;20920;-79
2022/06/30 10:58:22;;;;;;;5.47;5.05;;;;;;;27.65;60.32;100678.66;1641225;86;20880;-79
2022/06/30 11:01:03;;;;;;;6.17;5.35;;;;;;;27.68;60.07;100676.57;1696683;84;20966;-79
2022/06/30 11:03:35;;;;;;;5.70;5.22;;;;;;;27.67;60.04;100682.02;1656060;85;20998;-79
2022/06/30 11:06:09;;;;;;;6.25;5.78;;;;;;;27.70;60.11;100680.42;1692051;83;21119;-79
2022/06/30 11:11:27;;;;;;;6.42;5.78;;;;;;;27.93;59.86;100674.44;1637005;84;21079;-79
2022/06/30 11:14:07;;;;;;;6.10;5.50;;;;;;;27.94;59.67;100673.46;1692755;84;21567;-79
2022/06/30 11:16:36;;;;;;;7.65;6.15;;;;;;;27.97;59.67;100680.68;1690932;83;21076;-79
2022/06/30 11:19:05;;;;;;;6.33;5.72;;;;;;;27.98;59.52;100674.87;1633497;87;21070;-79
2022/06/30 11:21:32;;;;;;;8.23;5.72;;;;;;;27.97;59.33;100674.03;1599775;87;21026;-79
2022/06/30 11:24:02;;;;;;;5.85;5.28;;;;;;;28.02;59.30;100670.97;1611632;87;21093;-79
2022/06/30 11:29:18;;;;;;;6.40;5.80;;;;;;;28.14;59.23;100667.69;1631046;87;21089;-79
2022/06/30 11:31:44;;;;;;;6.30;5.83;;;;;;;28.22;59.05;100674.53;1632825;87;21084;-79
2022/06/30 11:34:14;;;;;;;;;;;;;;;28.16;58.84;100677.21;1631542;86;21092;-79
2022/06/30 11:36:44;;;;;;;6.00;5.50;;;;;;;28.12;58.70;100673.63;1618518;87;20240;-79
2022/06/30 11:39:20;;;;;;;6.42;5.80;;;;;;;28.13;58.81;100674.82;1610313;87;21669;-79
2022/06/30 11:41:56;;;;;;;6.65;6.10;;;;;;;28.17;58.81;100671.41;1629110;86;21070;-80
2022/06/30 11:44:39;;;;;;;7.92;5.78;;;;;;;28.22;58.59;100669.20;1614940;87;21101;-80
2022/06/30 11:47:12;;;;;;;5.78;5.37;;;;;;;28.27;58.60;100667.82;1624820;87;21574;-80
2022/06/30 11:49:51;;;;;;;8.53;6.12;;;;;;;28.37;58.55;100661.68;1606651;88;21242;-80
2022/06/30 11:52:38;;;;;;;6.37;5.83;;;;;;;28.45;58.43;100665.83;1624947;87;21107;-80
2022/06/30 11:55:12;;;;;;;7.20;5.92;;;;;;;28.52;58.41;100662.47;1618932;88;21149;-80
2022/06/30 11:57:45;;;;;;;7.03;6.42;;;;;;;28.59;58.29;100650.30;1614525;87;20918;-80
2022/06/30 12:00:24;;;;;;;6.95;6.20;;;;;;;28.64;58.16;100652.02;1635337;87;20958;-80